Time;durP1;ratioP1;P1;durP2;ratioP2;P2;SDS_P1;SDS_P2;PMS_P1;PMS_P2;Temp;Humidity;BMP_temperature;BMP_pressure;BME280_temperature;BME280_humidity;BME280_pressure;Samples;Min_cycle;Max_cycle;Signal;HPM_P1;HPM_P2
2023/08/15 00:00:14;;;;;;;8.95;4.15;;;;;;;20.02;81.44;101146.59;5015032;28;20498;-68
2023/08/15 00:02:39;;;;;;;10.25;3.92;;;;;;;20.00;81.42;101154.91;5020879;28;20088;-67
2023/08/15 00:05:05;;;;;;;11.23;4.65;;;;;;;19.97;81.60;101149.97;5020275;28;20042;-67
2023/08/15 00:07:30;;;;;;;10.73;4.28;;;;;;;19.92;81.42;101146.28;5017120;28;20026;-68
2023/08/15 00:09:55;;;;;;;11.77;4.30;;;;;;;19.90;82.09;101135.72;5015897;28;20018;-68
2023/08/15 00:12:21;;;;;;;9.40;4.10;;;;;;;19.98;81.65;101140.84;5013777;28;20034;-68
2023/08/15 00:14:46;;;;;;;10.27;4.13;;;;;;;19.98;81.30;101135.44;5020890;28;20036;-67
2023/08/15 00:17:12;;;;;;;11.00;4.85;;;;;;;19.95;81.34;101130.50;5020622;28;20052;-67
2023/08/15 00:19:37;;;;;;;7.80;4.30;;;;;;;19.92;81.25;101122.84;5012487;28;20545;-68
2023/08/15 00:22:02;;;;;;;12.48;4.68;;;;;;;19.92;81.22;101122.84;5016427;28;20418;-68
2023/08/15 00:24:27;;;;;;;11.55;4.40;;;;;;;19.91;81.54;101123.91;5024339;28;20040;-68
2023/08/15 00:26:53;;;;;;;9.52;3.95;;;;;;;19.99;81.33;101123.63;5018392;28;20626;-68
2023/08/15 00:29:18;;;;;;;9.40;4.20;;;;;;;19.88;81.52;101123.53;5013054;28;20022;-67
2023/08/15 00:31:43;;;;;;;12.68;4.03;;;;;;;19.88;81.77;101137.00;5017446;28;20412;-68
2023/08/15 00:34:09;;;;;;;12.98;4.55;;;;;;;19.88;82.26;101145.09;5014953;28;20129;-68
2023/08/15 00:36:34;;;;;;;9.68;4.28;;;;;;;19.84;82.20;101149.28;5015613;28;20451;-68
2023/08/15 00:39:02;;;;;;;11.85;4.30;;;;;;;19.73;82.04;101150.84;5012801;28;20113;-68
2023/08/15 00:41:28;;;;;;;7.57;4.00;;;;;;;19.65;82.19;101149.25;5014516;28;20033;-68
2023/08/15 00:43:53;;;;;;;7.80;3.88;;;;;;;19.52;82.64;101148.53;5016400;28;20072;-68
2023/08/15 00:46:18;;;;;;;8.75;4.32;;;;;;;19.38;82.67;101153.25;5015302;28;20316;-68
2023/08/15 00:48:44;;;;;;;9.45;4.55;;;;;;;19.31;83.06;101152.44;5009739;28;20068;-68
2023/08/15 00:51:09;;;;;;;13.65;5.40;;;;;;;19.24;82.88;101147.13;5012028;28;20026;-67
2023/08/15 00:53:35;;;;;;;8.73;4.18;;;;;;;19.19;83.01;101157.75;5018378;28;20708;-67
2023/08/15 00:56:01;;;;;;;12.30;4.40;;;;;;;19.06;82.98;101164.03;5014427;28;20032;-68
2023/08/15 00:58:29;;;;;;;10.25;4.05;;;;;;;18.92;83.03;101175.94;5013752;28;20030;-68
2023/08/15 01:00:54;;;;;;;10.15;4.05;;;;;;;18.78;83.03;101182.44;5012635;28;20037;-68
2023/08/15 01:03:19;;;;;;;12.07;4.10;;;;;;;18.59;83.18;101173.44;5014408;28;20046;-68
2023/08/15 01:05:46;;;;;;;11.05;3.72;;;;;;;18.44;83.78;101180.94;5019612;28;20025;-68
2023/08/15 01:08:12;;;;;;;9.38;4.03;;;;;;;18.29;84.15;101175.84;5014667;28;20505;-68
2023/08/15 01:10:42;;;;;;;10.80;3.65;;;;;;;18.21;84.43;101179.59;5014136;28;20022;-68
2023/08/15 01:13:36;;;;;;;9.10;3.70;;;;;;;18.10;84.01;101172.19;5019530;28;20359;-68
2023/08/15 01:16:07;;;;;;;10.60;3.38;;;;;;;18.12;83.90;101159.34;5013605;28;20575;-67
2023/08/15 01:18:37;;;;;;;10.82;3.75;;;;;;;18.12;83.99;101148.59;5013296;28;20041;-68
2023/08/15 01:21:03;;;;;;;13.25;3.65;;;;;;;18.14;84.04;101149.22;5014822;28;20044;-67
2023/08/15 01:23:45;;;;;;;10.40;3.83;;;;;;;18.25;83.36;101153.13;5011818;28;20029;-68
2023/08/15 01:26:10;;;;;;;9.13;3.13;;;;;;;18.28;83.17;101147.31;5020216;28;20060;-68
2023/08/15 01:28:38;;;;;;;12.23;3.58;;;;;;;18.31;82.61;101156.81;5010359;28;20050;-67
2023/08/15 01:31:30;;;;;;;11.15;3.10;;;;;;;18.30;82.53;101160.53;5012210;28;20025;-67
2023/08/15 01:34:23;;;;;;;9.38;3.25;;;;;;;18.30;82.21;101166.75;5011507;28;20044;-67
2023/08/15 01:36:54;;;;;;;7.95;3.00;;;;;;;18.25;82.34;101163.88;5010618;28;20046;-67
2023/08/15 01:39:27;;;;;;;9.43;3.30;;;;;;;18.15;82.31;101164.31;5012411;28;20022;-68
2023/08/15 01:41:53;;;;;;;8.40;3.38;;;;;;;18.06;82.87;101170.13;5012720;28;21578;-68
2023/08/15 01:44:20;;;;;;;10.80;3.38;;;;;;;18.02;82.94;101172.41;5014788;28;20022;-68
2023/08/15 01:46:46;;;;;;;8.07;3.63;;;;;;;17.99;83.35;101172.84;5014254;28;20029;-67
2023/08/15 01:49:15;;;;;;;9.80;3.30;;;;;;;18.02;83.38;101180.47;5014618;28;20037;-67
2023/08/15 01:51:40;;;;;;;11.10;3.63;;;;;;;18.03;83.59;101184.00;5013833;28;20380;-67
2023/08/15 01:54:05;;;;;;;8.13;2.90;;;;;;;17.99;83.21;101188.97;5018052;28;20049;-67
2023/08/15 01:56:31;;;;;;;10.85;3.53;;;;;;;18.00;83.41;101189.78;5014671;28;20067;-67
2023/08/15 01:58:57;;;;;;;12.57;3.40;;;;;;;18.09;83.45;101191.22;5016418;28;20019;-67
2023/08/15 02:01:22;;;;;;;13.48;3.22;;;;;;;18.17;83.12;101197.16;5020552;28;20554;-68
2023/08/15 02:03:47;;;;;;;8.38;3.20;;;;;;;18.18;82.83;101201.50;5014704;28;20022;-68
2023/08/15 02:06:12;;;;;;;10.60;3.00;;;;;;;18.20;82.61;101206.66;5020934;28;20107;-67
2023/08/15 02:08:38;;;;;;;9.13;2.90;;;;;;;18.22;82.60;101205.44;5015947;28;20021;-67
2023/08/15 02:11:03;;;;;;;9.75;3.38;;;;;;;18.20;82.73;101223.63;5014073;28;20061;-68
2023/08/15 02:13:32;;;;;;;7.80;2.95;;;;;;;18.17;82.48;101221.38;5014307;28;20026;-68
2023/08/15 02:15:57;;;;;;;11.23;3.50;;;;;;;18.14;82.47;101211.03;5016596;28;20029;-68
2023/08/15 02:18:27;;;;;;;10.05;3.70;;;;;;;18.10;82.34;101225.94;5014152;28;20059;-68
2023/08/15 02:20:53;;;;;;;9.45;3.58;;;;;;;18.09;82.60;101237.72;5012660;28;20105;-67
2023/08/15 02:23:18;;;;;;;12.23;3.35;;;;;;;18.11;83.23;101235.66;5012143;28;20022;-68
2023/08/15 02:25:43;;;;;;;10.25;3.97;;;;;;;18.14;83.12;101245.97;5009231;28;20028;-67
2023/08/15 02:28:09;;;;;;;9.93;3.63;;;;;;;18.16;83.51;101251.16;5010214;28;20037;-68
2023/08/15 02:30:37;;;;;;;14.52;3.90;;;;;;;18.12;83.33;101250.75;5007324;28;20155;-67
2023/08/15 02:33:03;;;;;;;10.93;4.07;;;;;;;18.10;84.16;101252.00;5017472;28;20112;-67
2023/08/15 02:35:28;;;;;;;11.77;4.05;;;;;;;18.08;84.11;101243.31;5011542;28;20092;-67
2023/08/15 02:37:54;;;;;;;13.30;4.03;;;;;;;18.09;84.43;101244.97;5018618;28;20586;-67
2023/08/15 02:40:19;;;;;;;12.27;4.22;;;;;;;18.09;84.41;101245.78;5015531;28;20076;-67
2023/08/15 02:42:44;;;;;;;9.43;4.07;;;;;;;18.08;84.51;101244.16;5013268;28;20045;-67
2023/08/15 02:45:10;;;;;;;11.98;3.58;;;;;;;18.05;84.66;101246.44;5011736;28;20480;-67
2023/08/15 02:47:35;;;;;;;10.45;3.60;;;;;;;18.00;84.79;101241.69;5014257;28;20022;-67
2023/08/15 02:50:00;;;;;;;10.45;3.72;;;;;;;17.95;84.78;101242.31;5019563;28;20033;-68
2023/08/15 02:52:26;;;;;;;8.55;3.40;;;;;;;17.88;85.24;101237.97;5012143;28;20022;-67
2023/08/15 02:54:51;;;;;;;10.10;3.50;;;;;;;17.79;85.42;101239.22;5015765;28;20526;-68
2023/08/15 02:57:16;;;;;;;12.25;3.83;;;;;;;17.71;85.86;101229.53;5013840;28;20079;-68
2023/08/15 02:59:41;;;;;;;12.10;3.70;;;;;;;17.66;85.89;101226.59;5018464;28;20079;-68
2023/08/15 03:02:07;;;;;;;11.43;4.10;;;;;;;17.60;86.45;101230.94;5020106;28;20041;-68
2023/08/15 03:04:32;;;;;;;10.18;3.85;;;;;;;17.55;86.67;101229.91;5022297;28;20022;-67
2023/08/15 03:06:57;;;;;;;9.98;3.60;;;;;;;17.52;87.36;101228.47;5027249;28;20025;-67
2023/08/15 03:09:22;;;;;;;13.43;3.58;;;;;;;17.51;87.64;101237.53;5023206;28;20049;-67
2023/08/15 03:11:48;;;;;;;11.07;3.30;;;;;;;17.46;87.86;101225.78;5014093;28;20052;-67
2023/08/15 03:14:13;;;;;;;10.35;3.40;;;;;;;17.39;88.27;101235.69;5013543;28;20029;-67
2023/08/15 03:16:38;;;;;;;13.55;3.35;;;;;;;17.36;88.62;101234.25;5013537;28;20030;-67
2023/08/15 03:19:03;;;;;;;8.18;3.40;;;;;;;17.38;89.38;101240.25;5013338;28;20498;-67
2023/08/15 03:21:30;;;;;;;10.18;3.80;;;;;;;17.38;89.41;101234.88;5014278;28;20034;-68
2023/08/15 03:23:55;;;;;;;13.52;3.63;;;;;;;17.35;89.71;101235.28;5017041;28;20045;-67
2023/08/15 03:26:20;;;;;;;8.80;3.55;;;;;;;17.33;89.88;101227.41;5025019;28;20123;-67
2023/08/15 03:28:45;;;;;;;14.68;4.10;;;;;;;17.29;90.79;101228.03;5030173;28;20037;-67
2023/08/15 03:31:11;;;;;;;12.68;3.63;;;;;;;17.25;90.41;101230.28;5022717;28;20029;-68
2023/08/15 03:33:36;;;;;;;12.88;3.70;;;;;;;17.20;90.62;101223.91;5022939;28;20105;-67
2023/08/15 03:36:02;;;;;;;11.05;3.97;;;;;;;17.16;91.03;101234.22;5028334;28;20437;-67
2023/08/15 03:38:27;;;;;;;12.30;3.83;;;;;;;17.18;91.63;101228.66;5025342;28;20025;-67
2023/08/15 03:41:04;;;;;;;12.60;3.80;;;;;;;17.15;91.60;101229.88;5031614;28;20013;-67
2023/08/15 03:43:33;;;;;;;12.52;4.03;;;;;;;17.14;91.82;101235.44;5020606;28;20025;-67
2023/08/15 03:45:59;;;;;;;;;;;;;;;17.17;91.59;101237.72;5020435;28;20060;-67
2023/08/15 03:48:25;;;;;;;12.88;4.03;;;;;;;17.12;91.43;101242.88;5021173;28;19956;-67
2023/08/15 03:50:54;;;;;;;11.48;4.10;;;;;;;17.08;92.04;101247.00;5019235;28;20441;-68
2023/08/15 03:53:19;;;;;;;;;;;;;;;17.13;91.65;101250.72;5018736;28;20397;-68
2023/08/15 03:55:46;;;;;;;13.20;4.43;;;;;;;17.10;92.03;101250.31;5027290;28;20350;-68
2023/08/15 03:58:11;;;;;;;14.55;4.43;;;;;;;17.06;92.31;101249.91;5026037;28;20033;-68
2023/08/15 04:00:36;;;;;;;17.30;4.50;;;;;;;17.04;92.43;101255.44;5024038;28;20398;-68
2023/08/15 04:03:02;;;;;;;11.82;5.18;;;;;;;17.02;92.74;101254.00;5027150;28;20036;-67
2023/08/15 04:05:27;;;;;;;13.18;5.20;;;;;;;17.01;92.95;101258.53;5024339;28;20056;-68
2023/08/15 04:07:52;;;;;;;14.27;4.88;;;;;;;16.96;92.98;101254.81;5029778;28;20048;-67
2023/08/15 04:10:17;;;;;;;15.85;5.10;;;;;;;16.95;93.35;101253.16;5026832;28;20021;-67
2023/08/15 04:12:46;;;;;;;13.07;5.28;;;;;;;16.89;93.59;101248.59;5029433;28;20026;-67
2023/08/15 04:15:11;;;;;;;14.60;5.40;;;;;;;16.86;93.53;101246.31;5019644;28;20079;-67
2023/08/15 04:17:36;;;;;;;9.88;4.95;;;;;;;16.75;93.56;101246.88;5021116;28;20013;-68
2023/08/15 04:20:07;;;;;;;13.43;5.40;;;;;;;16.66;93.60;101244.41;5025727;28;20064;-68
2023/08/15 04:22:32;;;;;;;14.40;5.70;;;;;;;16.60;93.89;101237.13;5028299;28;20730;-68
2023/08/15 04:24:57;;;;;;;14.85;5.95;;;;;;;16.60;94.28;101247.84;5013990;28;20021;-68
2023/08/15 04:27:22;;;;;;;13.73;5.65;;;;;;;16.53;94.80;101246.19;5023643;28;20021;-68
2023/08/15 04:29:48;;;;;;;15.27;6.38;;;;;;;16.52;94.99;101247.19;5022320;28;20482;-68
2023/08/15 04:32:13;;;;;;;16.95;6.35;;;;;;;16.48;95.33;101246.78;5028637;28;20478;-68
2023/08/15 04:34:38;;;;;;;15.68;6.05;;;;;;;16.46;95.42;101242.63;5023669;28;20018;-67
2023/08/15 04:37:04;;;;;;;16.00;6.72;;;;;;;16.44;95.57;101250.84;5018835;28;20034;-68
2023/08/15 04:39:30;;;;;;;18.85;6.68;;;;;;;16.42;96.50;101251.06;5028816;28;20048;-68
2023/08/15 04:41:55;;;;;;;13.55;6.47;;;;;;;16.40;96.77;101263.84;5022604;28;20059;-68
2023/08/15 04:44:21;;;;;;;16.98;6.72;;;;;;;16.41;97.27;101261.97;5024098;28;20029;-68
2023/08/15 04:46:46;;;;;;;16.27;7.28;;;;;;;16.43;97.61;101267.97;5022620;28;20033;-68
2023/08/15 04:49:11;;;;;;;14.98;7.00;;;;;;;16.46;97.71;101280.16;5018954;28;20021;-68
2023/08/15 04:51:36;;;;;;;17.38;6.82;;;;;;;16.47;97.86;101279.13;5029401;28;20033;-68
2023/08/15 04:54:02;;;;;;;13.82;7.10;;;;;;;16.46;97.84;101280.97;5025748;28;20614;-68
2023/08/15 04:56:27;;;;;;;14.93;7.85;;;;;;;16.42;98.16;101285.91;5022965;28;20032;-68
2023/08/15 04:58:52;;;;;;;15.20;7.57;;;;;;;16.41;97.95;101294.97;5028242;28;20048;-68
2023/08/15 05:01:18;;;;;;;14.32;6.97;;;;;;;16.37;98.58;101296.41;5021590;28;20415;-68
2023/08/15 05:03:43;;;;;;;19.95;7.97;;;;;;;16.37;98.92;101306.28;5024047;28;20017;-68
2023/08/15 05:06:08;;;;;;;17.30;7.78;;;;;;;16.35;99.14;101313.72;5021317;28;20152;-68
2023/08/15 05:08:33;;;;;;;15.30;8.15;;;;;;;16.32;99.19;101314.94;5022542;28;20041;-68
2023/08/15 05:11:00;;;;;;;14.07;7.57;;;;;;;16.33;99.49;101323.81;5029014;28;20029;-68
2023/08/15 05:13:26;;;;;;;15.63;8.02;;;;;;;16.33;100.00;101323.81;5023965;28;20064;-68
2023/08/15 05:15:51;;;;;;;16.92;7.97;;;;;;;16.36;100.00;101326.09;5020044;28;20055;-68
2023/08/15 05:18:16;;;;;;;16.52;8.27;;;;;;;16.40;100.00;101330.84;5018619;28;20080;-68
2023/08/15 05:20:42;;;;;;;21.60;9.02;;;;;;;16.46;100.00;101339.97;5010467;28;20021;-68
2023/08/15 05:23:07;;;;;;;18.05;8.52;;;;;;;16.52;100.00;101335.69;5021684;28;20021;-68
2023/08/15 05:25:33;;;;;;;15.55;8.07;;;;;;;16.57;100.00;101341.28;5020841;28;20617;-68
2023/08/15 05:28:02;;;;;;;16.92;8.80;;;;;;;16.61;100.00;101343.34;5022690;28;20026;-67
2023/08/15 05:30:28;;;;;;;18.02;8.88;;;;;;;16.63;100.00;101340.47;5028239;28;20029;-67
2023/08/15 05:32:53;;;;;;;17.65;8.35;;;;;;;16.66;100.00;101345.47;5018910;28;20039;-67
2023/08/15 05:35:18;;;;;;;19.52;8.63;;;;;;;16.69;100.00;101353.94;5017587;28;20513;-67
2023/08/15 05:37:44;;;;;;;20.35;9.20;;;;;;;16.75;100.00;101348.81;5023168;28;20034;-67
2023/08/15 05:40:09;;;;;;;18.42;8.48;;;;;;;16.80;100.00;101355.25;5017568;28;20025;-67
2023/08/15 05:42:35;;;;;;;20.52;8.93;;;;;;;16.87;100.00;101342.69;5018057;28;20060;-67
2023/08/15 05:45:00;;;;;;;22.55;8.95;;;;;;;16.92;100.00;101339.41;5023618;28;20125;-67
2023/08/15 05:47:25;;;;;;;19.60;8.95;;;;;;;16.99;100.00;101349.13;5024705;28;20030;-67
2023/08/15 05:49:50;;;;;;;20.13;8.55;;;;;;;17.05;100.00;101342.13;5012779;28;20528;-68
2023/08/15 05:52:16;;;;;;;16.17;9.10;;;;;;;17.12;100.00;101352.91;5020120;28;20033;-67
2023/08/15 05:54:41;;;;;;;21.20;9.80;;;;;;;17.16;100.00;101354.16;5020978;28;20076;-67
2023/08/15 05:57:06;;;;;;;22.40;9.07;;;;;;;17.20;100.00;101355.41;5008798;28;20025;-67
2023/08/15 05:59:32;;;;;;;18.08;8.82;;;;;;;17.26;100.00;101358.13;5008401;28;20037;-67
2023/08/15 06:01:57;;;;;;;20.23;8.70;;;;;;;17.31;100.00;101371.75;5008793;28;20440;-67
2023/08/15 06:04:22;;;;;;;16.45;8.18;;;;;;;17.33;100.00;101366.19;5014367;28;20505;-67
2023/08/15 06:06:47;;;;;;;17.77;8.00;;;;;;;17.38;100.00;101374.47;5012881;28;20022;-67
2023/08/15 06:09:13;;;;;;;16.33;8.05;;;;;;;17.43;100.00;101374.69;5015652;28;20022;-67
2023/08/15 06:11:38;;;;;;;19.02;7.88;;;;;;;17.41;100.00;101378.63;5013587;28;20442;-67
2023/08/15 06:14:04;;;;;;;16.38;7.93;;;;;;;17.40;100.00;101380.47;5013196;28;20029;-67
2023/08/15 06:16:29;;;;;;;17.52;7.70;;;;;;;17.43;100.00;101385.44;5009120;28;20022;-67
2023/08/15 06:18:56;;;;;;;19.20;8.10;;;;;;;17.45;100.00;101385.25;5015004;28;20030;-67
2023/08/15 06:21:21;;;;;;;16.45;7.43;;;;;;;17.48;100.00;101395.56;5013418;28;20044;-67
2023/08/15 06:23:46;;;;;;;18.92;8.25;;;;;;;17.52;100.00;101403.00;5018536;28;20041;-67
2023/08/15 06:26:11;;;;;;;14.68;7.68;;;;;;;17.59;100.00;101406.53;5014071;28;20763;-67
2023/08/15 06:28:37;;;;;;;22.30;8.27;;;;;;;17.68;100.00;101403.72;5011114;28;20029;-68
2023/08/15 06:31:02;;;;;;;14.77;7.45;;;;;;;17.73;100.00;101414.69;5014485;28;20054;-67
2023/08/15 06:33:27;;;;;;;17.50;7.72;;;;;;;17.77;100.00;101408.69;5024337;28;20112;-67
2023/08/15 06:35:53;;;;;;;18.38;8.15;;;;;;;17.83;100.00;101413.25;5031853;28;20125;-67
2023/08/15 06:38:18;;;;;;;16.00;7.45;;;;;;;17.89;100.00;101406.22;5019986;28;20076;-67
2023/08/15 06:40:43;;;;;;;14.98;7.22;;;;;;;17.96;99.80;101407.06;5029047;28;20022;-67
2023/08/15 06:43:08;;;;;;;16.75;7.47;;;;;;;18.00;99.67;101413.69;5028202;28;20077;-67
2023/08/15 06:45:36;;;;;;;20.02;7.70;;;;;;;18.11;99.62;101418.44;5025767;28;20036;-67
2023/08/15 06:48:02;;;;;;;17.42;8.25;;;;;;;18.19;99.73;101415.53;5024043;28;20021;-67
2023/08/15 06:50:28;;;;;;;24.33;7.95;;;;;;;18.21;98.84;101418.03;5027254;28;20079;-67
2023/08/15 06:52:53;;;;;;;17.92;7.78;;;;;;;18.29;98.08;101417.00;5027639;28;20029;-67
2023/08/15 06:55:18;;;;;;;21.85;7.65;;;;;;;18.35;97.65;101421.56;5027844;28;20430;-67
2023/08/15 06:57:44;;;;;;;18.30;7.93;;;;;;;18.40;97.65;101421.75;5022846;28;20034;-67
2023/08/15 07:00:11;;;;;;;17.90;8.05;;;;;;;18.47;97.34;101417.19;5025938;28;20036;-68
2023/08/15 07:02:37;;;;;;;15.43;7.53;;;;;;;18.55;97.24;101412.44;5019486;28;20028;-67
2023/08/15 07:05:04;;;;;;;19.20;7.00;;;;;;;18.65;97.29;101416.59;5026657;28;20017;-67
2023/08/15 07:07:29;;;;;;;19.50;7.53;;;;;;;18.75;96.97;101415.09;5029327;28;20029;-67
2023/08/15 07:09:54;;;;;;;19.63;7.68;;;;;;;18.81;96.67;101408.09;5023826;28;20050;-67
2023/08/15 07:12:20;;;;;;;22.13;7.90;;;;;;;18.90;96.49;101408.66;5023906;28;20026;-67
2023/08/15 07:14:48;;;;;;;18.48;7.82;;;;;;;18.94;95.45;101412.59;5021768;28;20029;-67
2023/08/15 07:17:13;;;;;;;18.20;6.40;;;;;;;18.96;95.17;101418.59;5017020;28;20133;-67
2023/08/15 07:19:38;;;;;;;16.63;7.47;;;;;;;18.95;94.31;101423.13;5025562;28;20099;-67
2023/08/15 07:22:04;;;;;;;15.75;6.07;;;;;;;19.02;93.82;101428.50;5042210;28;20368;-67
2023/08/15 07:24:29;;;;;;;15.20;6.53;;;;;;;19.08;93.74;101433.03;5031108;28;20060;-67
2023/08/15 07:26:54;;;;;;;18.35;6.75;;;;;;;19.17;93.57;101434.47;5024755;28;20083;-67
2023/08/15 07:29:19;;;;;;;14.55;6.43;;;;;;;19.23;93.59;101439.00;5025484;28;20077;-67
2023/08/15 07:31:45;;;;;;;14.10;5.85;;;;;;;19.35;93.27;101448.06;5024561;28;20135;-67
2023/08/15 07:34:10;;;;;;;16.17;6.13;;;;;;;19.39;92.91;101445.78;5018462;28;20399;-68
2023/08/15 07:36:36;;;;;;;18.35;6.75;;;;;;;19.46;92.42;101446.56;5033113;28;20167;-67
2023/08/15 07:39:01;;;;;;;17.25;5.97;;;;;;;19.49;91.59;101438.06;5029849;28;20611;-67
2023/08/15 07:41:26;;;;;;;13.23;5.35;;;;;;;19.54;91.63;101445.53;5029291;28;20025;-68
2023/08/15 07:43:51;;;;;;;13.65;5.63;;;;;;;19.61;91.65;101449.00;5025040;28;20014;-67
2023/08/15 07:46:17;;;;;;;12.95;5.75;;;;;;;19.66;91.58;101447.34;5021735;28;20029;-67
2023/08/15 07:48:45;;;;;;;18.58;5.28;;;;;;;19.72;91.41;101449.16;5021479;28;20505;-67
2023/08/15 07:51:10;;;;;;;13.13;5.47;;;;;;;19.82;91.19;101447.88;5017859;28;20475;-67
2023/08/15 07:53:36;;;;;;;13.35;6.05;;;;;;;19.87;90.23;101451.56;5028565;28;20268;-67
2023/08/15 07:56:01;;;;;;;16.63;5.22;;;;;;;19.97;90.18;101462.72;5022263;28;20025;-67
2023/08/15 07:58:27;;;;;;;10.77;4.55;;;;;;;20.06;89.78;101453.31;5012433;28;20026;-67
2023/08/15 08:00:52;;;;;;;12.52;5.07;;;;;;;20.12;89.11;101462.38;5011903;28;20033;-67
2023/08/15 08:03:17;;;;;;;14.63;4.95;;;;;;;20.14;88.21;101465.69;5014886;28;20107;-67
2023/08/15 08:05:43;;;;;;;13.05;4.85;;;;;;;20.15;87.53;101461.13;5020278;28;20041;-67
2023/08/15 08:08:08;;;;;;;16.42;5.00;;;;;;;20.21;86.99;101455.66;5018823;28;20026;-67
2023/08/15 08:10:34;;;;;;;15.13;4.97;;;;;;;20.18;86.57;101456.13;5021740;28;20029;-67
2023/08/15 08:13:04;;;;;;;16.13;4.65;;;;;;;20.26;86.45;101472.06;5019930;28;20022;-67
2023/08/15 08:15:29;;;;;;;10.65;4.47;;;;;;;20.27;86.23;101462.91;5009147;28;20152;-67
2023/08/15 08:17:55;;;;;;;14.90;4.28;;;;;;;20.35;85.88;101469.91;5012028;28;20117;-67
2023/08/15 08:20:21;;;;;;;13.93;4.28;;;;;;;20.44;85.86;101481.28;5020756;28;20061;-67
2023/08/15 08:22:47;;;;;;;12.57;3.80;;;;;;;20.42;84.62;101471.53;5021224;28;20129;-67
2023/08/15 08:25:18;;;;;;;13.00;3.65;;;;;;;20.44;85.09;101465.91;5019011;28;20112;-67
2023/08/15 08:27:46;;;;;;;11.13;3.70;;;;;;;20.49;84.93;101476.03;5025502;28;20017;-67
2023/08/15 08:30:14;;;;;;;10.10;3.78;;;;;;;20.55;84.75;101475.16;5027645;28;20052;-67
2023/08/15 08:32:39;;;;;;;12.57;3.80;;;;;;;20.58;85.18;101486.34;5017461;28;20045;-67
2023/08/15 08:35:05;;;;;;;11.98;3.67;;;;;;;20.55;84.45;101483.28;5017457;28;20053;-67
2023/08/15 08:37:31;;;;;;;11.50;4.03;;;;;;;20.48;83.81;101483.31;5021309;28;20043;-67
2023/08/15 08:39:57;;;;;;;10.63;3.78;;;;;;;20.49;83.77;101473.34;5028331;28;20522;-67
2023/08/15 08:42:23;;;;;;;15.52;3.90;;;;;;;20.54;83.73;101479.75;5017317;28;20037;-67
2023/08/15 08:44:49;;;;;;;13.10;4.10;;;;;;;20.57;83.40;101473.91;5020090;28;20017;-67
2023/08/15 08:47:15;;;;;;;13.32;3.72;;;;;;;20.65;83.64;101479.00;5025301;28;20395;-67
2023/08/15 08:49:42;;;;;;;11.18;3.47;;;;;;;20.76;83.88;101482.03;5020386;28;20023;-67
2023/08/15 08:52:08;;;;;;;8.98;3.60;;;;;;;20.84;83.79;101477.19;5027695;28;20022;-67
2023/08/15 08:54:34;;;;;;;9.32;3.28;;;;;;;20.93;82.58;101477.72;5027832;28;20079;-67
2023/08/15 08:57:00;;;;;;;10.60;3.60;;;;;;;21.04;82.47;101480.47;5024276;28;20023;-67
2023/08/15 08:59:28;;;;;;;18.15;4.00;;;;;;;21.32;83.13;101476.47;5026642;28;20490;-67
2023/08/15 09:01:53;;;;;;;11.77;3.85;;;;;;;21.45;82.35;101481.72;5024695;28;20063;-67
2023/08/15 09:04:20;;;;;;;9.73;3.65;;;;;;;21.56;82.13;101488.25;5024372;28;20025;-67
2023/08/15 09:06:46;;;;;;;9.20;3.67;;;;;;;21.59;80.71;101493.19;5026618;28;20033;-68
2023/08/15 09:09:12;;;;;;;10.45;4.20;;;;;;;21.56;79.76;101486.34;5026918;28;20048;-67
2023/08/15 09:11:37;;;;;;;9.43;3.60;;;;;;;21.58;79.48;101494.25;5018478;28;20533;-67
2023/08/15 09:14:04;;;;;;;11.27;3.42;;;;;;;21.64;78.67;101487.91;5018781;28;20049;-67
2023/08/15 09:16:30;;;;;;;10.95;4.20;;;;;;;21.69;78.53;101496.19;5028592;28;20032;-67
2023/08/15 09:18:56;;;;;;;11.70;4.45;;;;;;;21.71;78.07;101493.25;5021572;28;20025;-67
2023/08/15 09:21:23;;;;;;;10.48;4.15;;;;;;;21.73;77.35;101499.25;5021797;28;20116;-67
2023/08/15 09:23:51;;;;;;;16.15;4.85;;;;;;;21.78;77.36;101500.22;5027017;28;20079;-67
2023/08/15 09:26:17;;;;;;;14.63;4.65;;;;;;;21.80;77.11;101505.41;5023609;28;20055;-67
2023/08/15 09:28:44;;;;;;;13.95;4.78;;;;;;;21.86;77.66;101504.47;5031887;28;20034;-67
2023/08/15 09:31:10;;;;;;;13.35;4.65;;;;;;;22.00;77.54;101507.84;5027241;28;20033;-67
2023/08/15 09:33:37;;;;;;;14.57;5.60;;;;;;;22.11;77.33;101510.59;5019983;28;20108;-67
2023/08/15 09:36:05;;;;;;;14.30;5.68;;;;;;;22.18;77.04;101510.50;5021213;28;20026;-67
2023/08/15 09:38:30;;;;;;;15.32;6.15;;;;;;;22.30;76.91;101513.25;5025644;28;20022;-67
2023/08/15 09:40:56;;;;;;;11.55;5.80;;;;;;;22.29;76.21;101507.00;5026824;28;20109;-67
2023/08/15 09:43:22;;;;;;;14.75;6.10;;;;;;;22.39;76.37;101512.69;5024128;28;20125;-67
2023/08/15 09:45:48;;;;;;;15.10;7.05;;;;;;;22.41;75.74;101509.75;5018144;28;20029;-67
2023/08/15 09:48:16;;;;;;;15.57;6.38;;;;;;;22.48;76.33;101513.97;5011868;28;20032;-67
2023/08/15 09:50:42;;;;;;;11.93;6.30;;;;;;;22.44;76.54;101520.09;5020471;28;20068;-68
2023/08/15 09:53:09;;;;;;;11.80;5.72;;;;;;;22.31;76.11;101517.59;5018135;28;20029;-67
2023/08/15 09:55:36;;;;;;;15.52;5.32;;;;;;;22.22;76.25;101525.22;5023841;28;20049;-67
2023/08/15 09:58:03;;;;;;;15.07;5.10;;;;;;;22.17;76.44;101525.09;5018307;28;20026;-67
2023/08/15 10:00:29;;;;;;;10.13;5.43;;;;;;;22.09;76.60;101526.25;5022145;28;20025;-67
2023/08/15 10:03:06;;;;;;;14.80;4.40;;;;;;;22.03;76.60;101523.59;5027327;28;20021;-67
2023/08/15 10:05:33;;;;;;;11.93;3.70;;;;;;;21.99;76.76;101525.13;5024577;28;20021;-67
2023/08/15 10:07:59;;;;;;;12.13;3.67;;;;;;;22.04;76.13;101530.69;5020169;28;20020;-67
2023/08/15 10:10:26;;;;;;;13.57;3.72;;;;;;;22.11;75.60;101528.72;5026257;28;20029;-67
2023/08/15 10:12:53;;;;;;;8.63;3.75;;;;;;;22.20;74.89;101544.38;5017604;28;20029;-67
2023/08/15 10:15:20;;;;;;;10.18;3.80;;;;;;;22.18;74.68;101541.09;5026971;28;20032;-67
2023/08/15 10:17:46;;;;;;;9.02;3.45;;;;;;;22.18;74.08;101551.09;5022398;28;20057;-67
2023/08/15 10:20:16;;;;;;;12.40;3.72;;;;;;;22.22;74.13;101555.78;5024163;28;20053;-67
2023/08/15 10:22:42;;;;;;;10.95;3.63;;;;;;;22.36;73.77;101556.44;5022088;28;20037;-67
2023/08/15 10:25:32;;;;;;;11.18;3.78;;;;;;;22.55;73.86;101549.91;5014968;28;20026;-67
2023/08/15 10:27:58;;;;;;;9.75;3.20;;;;;;;22.77;73.70;101543.91;5029801;28;20104;-67
2023/08/15 10:30:41;;;;;;;12.85;3.40;;;;;;;22.98;73.21;101548.78;5027005;28;20548;-67
2023/08/15 10:33:13;;;;;;;8.50;2.90;;;;;;;23.12;72.34;101552.91;5017825;28;20025;-67
2023/08/15 10:35:49;;;;;;;11.80;3.40;;;;;;;23.36;71.68;101550.19;5023426;28;20022;-67
2023/08/15 10:38:16;;;;;;;7.53;2.88;;;;;;;23.51;70.77;101541.56;5026484;28;20028;-67
2023/08/15 10:40:44;;;;;;;10.82;3.08;;;;;;;23.71;70.65;101548.28;5026453;28;20021;-67
2023/08/15 10:43:11;;;;;;;11.63;3.25;;;;;;;23.63;70.27;101553.22;5026235;28;20033;-67
2023/08/15 10:45:53;;;;;;;11.00;3.30;;;;;;;23.66;69.48;101563.59;5027447;28;20506;-67
2023/08/15 10:48:43;;;;;;;12.32;3.05;;;;;;;23.65;68.78;101556.50;5022949;28;21735;-67
2023/08/15 10:51:22;;;;;;;7.63;3.30;;;;;;;23.65;68.64;101559.22;5027383;28;20025;-67
2023/08/15 10:53:49;;;;;;;7.15;2.80;;;;;;;23.54;67.77;101562.78;5023120;28;20497;-67
2023/08/15 10:56:19;;;;;;;10.55;2.88;;;;;;;23.47;68.01;101569.16;5024786;28;20474;-67
2023/08/15 10:58:46;;;;;;;10.35;3.03;;;;;;;23.33;67.85;101558.78;5020008;28;20022;-67
2023/08/15 11:01:16;;;;;;;9.02;3.20;;;;;;;23.22;68.48;101562.34;5019561;28;20625;-67
2023/08/15 11:03:42;;;;;;;10.52;2.90;;;;;;;23.09;67.91;101564.22;5023778;28;20025;-67
2023/08/15 11:06:12;;;;;;;9.45;2.72;;;;;;;23.05;69.18;101557.63;5017698;28;20034;-67
2023/08/15 11:08:52;;;;;;;8.55;3.03;;;;;;;23.01;69.73;101564.56;5017220;28;20122;-67
2023/08/15 11:11:17;;;;;;;9.57;3.75;;;;;;;22.97;70.17;101560.69;5022164;28;20033;-67
2023/08/15 11:13:45;;;;;;;10.48;4.25;;;;;;;22.93;70.94;101564.94;5025586;28;20025;-67